createdAt,value
2022-10-21T00:03:37.667Z,16.67
2022-10-21T00:08:01.729Z,17.20
2022-10-21T00:12:16.710Z,15.40
2022-10-21T00:17:10.031Z,14.47
2022-10-21T00:26:36.200Z,23.33
2022-10-21T00:30:58.333Z,23.37
2022-10-21T00:39:57.669Z,25.43
2022-10-21T00:44:18.456Z,25.10
2022-10-21T00:48:36.083Z,21.73
2022-10-21T00:52:45.667Z,23.63
2022-10-21T00:56:57.569Z,22.80
2022-10-21T01:05:34.588Z,28.90
2022-10-21T01:09:43.846Z,30.97
2022-10-21T01:14:27.374Z,33.03
2022-10-21T01:24:31.613Z,21.73
2022-10-21T01:29:33.168Z,22.07
2022-10-21T01:33:53.287Z,20.50
2022-10-21T01:38:17.109Z,30.37
2022-10-21T01:42:48.825Z,28.80
2022-10-21T01:47:01.348Z,30.33
2022-10-21T01:51:21.086Z,28.57
2022-10-21T01:55:33.711Z,27.23
2022-10-21T01:59:57.633Z,30.60
2022-10-21T02:04:16.911Z,21.67
2022-10-21T02:08:29.273Z,28.23
2022-10-21T02:12:44.748Z,30.00
2022-10-21T02:16:55.971Z,30.07
2022-10-21T02:21:20.587Z,30.50
2022-10-21T02:25:59.765Z,26.00
2022-10-21T02:30:51.425Z,29.90
2022-10-21T02:36:08.407Z,31.60
2022-10-21T02:40:26.770Z,33.37
2022-10-21T02:44:50.108Z,28.63
2022-10-21T02:49:35.068Z,36.37
2022-10-21T02:53:57.889Z,35.90
2022-10-21T02:58:14.950Z,35.73
2022-10-21T03:02:30.670Z,36.20
2022-10-21T03:07:02.350Z,37.57
2022-10-21T03:15:52.986Z,36.97
2022-10-21T03:20:12.249Z,37.10
2022-10-21T03:24:29.065Z,40.30
2022-10-21T03:28:50.510Z,39.27
2022-10-21T03:33:17.727Z,51.10
2022-10-21T03:37:34.685Z,41.43
2022-10-21T03:46:14.105Z,48.27
2022-10-21T03:50:27.253Z,50.40
2022-10-21T03:54:41.051Z,42.93
2022-10-21T03:58:58.554Z,39.33
2022-10-21T04:03:11.108Z,38.90
2022-10-21T04:07:22.464Z,42.87
2022-10-21T04:11:50.790Z,38.43
2022-10-21T04:16:01.383Z,40.10
2022-10-21T04:20:13.685Z,37.07
2022-10-21T04:24:25.310Z,42.57
2022-10-21T04:28:38.290Z,39.17
2022-10-21T04:32:49.287Z,36.50
2022-10-21T04:37:34.070Z,42.00
2022-10-21T04:41:46.329Z,36.60
2022-10-21T04:46:53.771Z,40.93
2022-10-21T04:51:11.705Z,37.63
2022-10-21T05:00:05.729Z,45.47
2022-10-21T05:04:18.994Z,40.63
2022-10-21T05:09:37.575Z,39.13
2022-10-21T05:14:07.189Z,43.40
2022-10-21T05:18:30.929Z,36.77
2022-10-21T05:22:52.791Z,40.87
2022-10-21T05:27:07.730Z,34.30
2022-10-21T05:31:43.164Z,39.83
2022-10-21T05:36:07.046Z,36.37
2022-10-21T05:40:38.295Z,34.03
2022-10-21T05:45:12.510Z,40.23
2022-10-21T05:49:50.690Z,42.60
2022-10-21T05:54:29.765Z,33.60
2022-10-21T05:58:48.307Z,37.17
2022-10-21T06:03:04.688Z,30.17
2022-10-21T06:07:56.309Z,39.60
2022-10-21T06:12:11.110Z,43.70
2022-10-21T06:21:37.190Z,33.80
2022-10-21T06:26:18.027Z,43.83
2022-10-21T06:31:00.666Z,35.27
2022-10-21T06:35:13.668Z,33.83
2022-10-21T06:39:22.992Z,35.50
2022-10-21T06:43:57.670Z,44.77
2022-10-21T06:53:07.590Z,36.13
2022-10-21T06:57:35.191Z,41.73
2022-10-21T07:02:06.361Z,39.10
2022-10-21T07:06:26.426Z,41.77
2022-10-21T07:11:18.851Z,39.37
2022-10-21T07:15:31.225Z,39.13
2022-10-21T07:20:22.049Z,35.53
2022-10-21T07:24:54.960Z,36.13
2022-10-21T07:29:07.710Z,36.37
2022-10-21T07:37:52.931Z,43.77
2022-10-21T07:42:32.567Z,33.00
2022-10-21T07:47:02.809Z,41.20
2022-10-21T07:51:18.207Z,41.03
2022-10-21T07:55:37.607Z,38.67
2022-10-21T07:59:47.988Z,39.73
2022-10-21T08:03:57.929Z,31.23
2022-10-21T08:08:28.425Z,43.43
2022-10-21T08:12:39.627Z,36.50
2022-10-21T08:16:55.689Z,31.13
2022-10-21T08:21:08.727Z,37.23
2022-10-21T08:25:18.668Z,36.93
2022-10-21T08:29:37.694Z,32.20
2022-10-21T08:33:57.432Z,31.70
2022-10-21T08:42:19.709Z,31.63
2022-10-21T08:46:35.827Z,38.27
2022-10-21T08:50:53.850Z,30.23
2022-10-21T08:55:11.647Z,25.10
2022-10-21T08:59:43.969Z,32.00
2022-10-21T09:04:04.846Z,33.70
2022-10-21T09:08:37.856Z,28.30
2022-10-21T09:13:02.391Z,37.83
2022-10-21T09:17:40.183Z,37.87
2022-10-21T09:22:16.377Z,27.27
2022-10-21T09:26:43.845Z,33.43
2022-10-21T09:30:53.470Z,33.00
2022-10-21T09:35:08.390Z,34.27
2022-10-21T09:39:23.288Z,24.20
2022-10-21T09:43:32.750Z,33.77
2022-10-21T09:47:43.909Z,35.50
2022-10-21T09:51:54.236Z,37.50
2022-10-21T09:56:12.131Z,31.53
2022-10-21T10:00:22.006Z,34.73
2022-10-21T10:04:36.686Z,38.37
2022-10-21T10:08:54.238Z,29.10
2022-10-21T10:13:05.250Z,35.20
2022-10-21T10:17:31.767Z,33.77
2022-10-21T10:21:45.789Z,32.30
2022-10-21T10:25:59.870Z,24.80
2022-10-21T10:30:18.950Z,34.63
2022-10-21T10:34:36.769Z,30.67
2022-10-21T10:43:33.690Z,35.93
2022-10-21T10:47:50.069Z,29.47
2022-10-21T10:52:24.678Z,21.63
2022-10-21T10:56:46.791Z,28.90
2022-10-21T11:01:02.729Z,34.77
2022-10-21T11:05:32.726Z,31.00
2022-10-21T11:09:45.325Z,29.67
2022-10-21T11:18:34.487Z,29.10
2022-10-21T11:23:01.954Z,31.67
2022-10-21T11:28:04.986Z,33.37
2022-10-21T11:32:29.128Z,32.17
2022-10-21T11:36:52.888Z,30.50
2022-10-21T11:46:38.586Z,30.80
2022-10-21T11:51:16.636Z,36.77
2022-10-21T12:00:20.534Z,33.10
2022-10-21T12:04:48.851Z,34.37
2022-10-21T12:09:28.634Z,27.57
2022-10-21T12:14:08.527Z,28.97
2022-10-21T12:18:29.004Z,26.17
2022-10-21T12:22:43.846Z,32.73
2022-10-21T12:27:12.470Z,33.13
2022-10-21T12:32:02.013Z,29.33
2022-10-21T12:36:22.404Z,29.57
2022-10-21T12:40:43.149Z,26.17
2022-10-21T12:45:09.570Z,30.60
2022-10-21T12:49:48.861Z,30.53
2022-10-21T12:54:33.327Z,29.23
2022-10-21T12:58:49.029Z,36.70
2022-10-21T13:07:39.913Z,37.30
2022-10-21T13:12:06.127Z,42.73
2022-10-21T13:16:38.849Z,42.30
2022-10-21T13:21:00.877Z,44.57
2022-10-21T13:25:23.707Z,40.20
2022-10-21T13:29:50.507Z,34.73
2022-10-21T13:34:00.788Z,46.30
2022-10-21T13:38:23.350Z,44.33
2022-10-21T13:42:52.409Z,34.80
2022-10-21T13:47:34.454Z,32.47
2022-10-21T13:51:49.210Z,35.50
2022-10-21T13:56:06.547Z,37.40
2022-10-21T14:00:21.588Z,32.67
2022-10-21T14:04:34.008Z,34.90
2022-10-21T14:08:46.329Z,43.90
2022-10-21T14:17:10.348Z,43.50
2022-10-21T14:21:24.408Z,52.67
2022-10-21T14:25:34.988Z,42.20
2022-10-21T14:29:45.885Z,45.03
2022-10-21T14:33:55.648Z,45.37
2022-10-21T14:38:28.450Z,50.73
2022-10-21T14:42:38.213Z,45.23
2022-10-21T14:46:49.765Z,34.70
2022-10-21T14:51:01.573Z,27.47
2022-10-21T14:55:17.610Z,28.87
2022-10-21T14:59:32.169Z,27.70
2022-10-21T15:03:45.707Z,25.50
2022-10-21T15:08:29.239Z,40.57
2022-10-21T15:12:43.967Z,47.90
2022-10-21T15:17:03.746Z,33.67
2022-10-21T15:21:16.888Z,41.90
2022-10-21T15:25:27.787Z,34.67
2022-10-21T15:29:40.825Z,35.27
2022-10-21T15:33:59.907Z,43.30
2022-10-21T15:38:16.648Z,43.07
2022-10-21T15:42:27.607Z,39.40
2022-10-21T15:46:46.922Z,41.37
2022-10-21T15:51:05.929Z,32.60
2022-10-21T15:55:17.050Z,44.90
2022-10-21T16:04:07.509Z,38.03
2022-10-21T16:08:20.116Z,30.33
2022-10-21T16:12:37.720Z,33.90
2022-10-21T16:16:50.747Z,42.00
2022-10-21T16:21:17.309Z,32.07
2022-10-21T16:25:29.008Z,34.27
2022-10-21T16:29:39.388Z,40.27
2022-10-21T16:38:15.399Z,39.50
2022-10-21T16:42:30.226Z,38.80
2022-10-21T16:56:21.726Z,35.97
2022-10-21T17:00:38.136Z,38.13
2022-10-21T17:04:48.749Z,38.87
2022-10-21T17:09:00.015Z,39.90
2022-10-21T17:13:18.167Z,43.37
2022-10-21T17:17:33.607Z,42.63
2022-10-21T17:21:58.185Z,42.13
2022-10-21T17:31:17.228Z,50.10
2022-10-21T17:41:24.367Z,40.37
2022-10-21T17:45:52.247Z,44.73
2022-10-21T17:50:01.485Z,46.17
2022-10-21T17:54:15.369Z,41.10
2022-10-21T18:07:42.163Z,32.63
2022-10-21T18:11:52.113Z,27.87
2022-10-21T18:16:05.468Z,25.43
2022-10-21T18:20:18.686Z,28.27
2022-10-21T18:24:31.284Z,24.23
2022-10-21T18:28:40.452Z,33.60
2022-10-21T18:32:49.767Z,26.57
2022-10-21T18:37:00.770Z,24.40
2022-10-21T18:41:20.084Z,30.00
2022-10-21T18:45:31.464Z,35.43
2022-10-21T18:49:41.005Z,40.50
2022-10-21T18:53:53.177Z,25.90
2022-10-21T18:58:02.627Z,34.30
2022-10-21T19:02:19.164Z,27.60
2022-10-21T19:06:38.335Z,31.40
2022-10-21T19:10:49.346Z,23.97
2022-10-21T19:14:58.527Z,26.87
2022-10-21T19:19:08.490Z,22.53
2022-10-21T19:23:17.708Z,26.80
2022-10-21T19:27:40.732Z,23.37
2022-10-21T19:31:50.548Z,25.33
2022-10-21T19:36:01.609Z,23.80
2022-10-21T19:40:14.167Z,23.60
2022-10-21T19:44:28.704Z,27.33
2022-10-21T19:48:38.491Z,26.63
2022-10-21T19:52:47.668Z,25.20
2022-10-21T19:56:57.035Z,28.53
2022-10-21T20:01:10.794Z,26.70
2022-10-21T20:05:20.310Z,31.90
2022-10-21T20:09:29.467Z,33.37
2022-10-21T20:13:38.826Z,30.13
2022-10-21T20:17:49.488Z,27.57
2022-10-21T20:21:58.686Z,23.50
2022-10-21T20:26:08.306Z,27.47
2022-10-21T20:30:17.727Z,28.97
2022-10-21T20:34:28.607Z,27.20
2022-10-21T20:38:38.089Z,27.77
2022-10-21T20:42:49.734Z,29.27
2022-10-21T20:46:59.245Z,34.03
2022-10-21T20:51:11.786Z,24.40
2022-10-21T20:55:21.067Z,31.30
2022-10-21T20:59:30.308Z,27.57
2022-10-21T21:03:42.128Z,28.17
2022-10-21T21:07:52.803Z,27.07
2022-10-21T21:12:04.084Z,28.33
2022-10-21T21:16:15.468Z,32.63
2022-10-21T21:20:24.648Z,30.43
2022-10-21T21:24:35.304Z,33.07
2022-10-21T21:28:44.429Z,40.40
2022-10-21T21:32:53.847Z,35.73
2022-10-21T21:37:03.026Z,29.23
2022-10-21T21:41:13.965Z,30.80
2022-10-21T21:45:23.145Z,36.97
2022-10-21T21:49:32.845Z,33.50
2022-10-21T21:53:42.072Z,28.90
2022-10-21T21:57:52.668Z,37.83
2022-10-21T22:02:03.845Z,30.90
2022-10-21T22:06:13.277Z,32.37
2022-10-21T22:10:22.906Z,31.47
2022-10-21T22:14:33.745Z,29.17
2022-10-21T22:18:42.968Z,33.77
2022-10-21T22:22:52.128Z,29.63
2022-10-21T22:27:01.307Z,26.37
2022-10-21T22:31:14.285Z,26.10
2022-10-21T22:35:23.365Z,28.80
2022-10-21T22:39:32.594Z,30.13
2022-10-21T22:43:43.054Z,28.70
2022-10-21T22:47:53.826Z,30.83
2022-10-21T22:52:03.055Z,27.67
2022-10-21T22:56:12.266Z,34.60
2022-10-21T23:00:21.745Z,29.17
2022-10-21T23:04:32.764Z,29.23
2022-10-21T23:08:42.152Z,29.97
2022-10-21T23:12:51.348Z,31.80
2022-10-21T23:17:00.506Z,35.53
2022-10-21T23:21:11.166Z,26.33
2022-10-21T23:25:20.631Z,31.17
2022-10-21T23:29:29.848Z,35.73
2022-10-21T23:33:38.987Z,26.40
2022-10-21T23:37:49.766Z,28.33
2022-10-21T23:41:58.910Z,28.10
2022-10-21T23:46:08.406Z,26.43
2022-10-21T23:50:17.985Z,30.40
2022-10-21T23:54:28.745Z,40.37
2022-10-21T23:58:38.048Z,33.10
